sensor_id;sensor_type;location;lat;lon;timestamp;temperature;humidity
1578;DHT22;57623;53.608;10.004;2024-02-21T00:01:14;9.20;99.90
1578;DHT22;57623;53.608;10.004;2024-02-21T00:03:42;9.20;99.90
1578;DHT22;57623;53.608;10.004;2024-02-21T00:06:11;9.20;99.90
1578;DHT22;57623;53.608;10.004;2024-02-21T00:08:39;9.20;99.90
1578;DHT22;57623;53.608;10.004;2024-02-21T00:11:07;9.20;99.90
1578;DHT22;57623;53.608;10.004;2024-02-21T00:13:37;9.20;99.90
1578;DHT22;57623;53.608;10.004;2024-02-21T00:16:05;9.10;99.90
1578;DHT22;57623;53.608;10.004;2024-02-21T00:18:33;9.20;99.90
1578;DHT22;57623;53.608;10.004;2024-02-21T00:21:01;9.10;99.90
1578;DHT22;57623;53.608;10.004;2024-02-21T00:23:29;9.20;99.90
1578;DHT22;57623;53.608;10.004;2024-02-21T00:25:57;9.20;99.90
1578;DHT22;57623;53.608;10.004;2024-02-21T00:28:26;9.10;99.90
1578;DHT22;57623;53.608;10.004;2024-02-21T00:30:56;9.20;99.90
1578;DHT22;57623;53.608;10.004;2024-02-21T00:33:25;9.20;99.90
1578;DHT22;57623;53.608;10.004;2024-02-21T00:35:53;9.10;99.90
1578;DHT22;57623;53.608;10.004;2024-02-21T00:38:21;9.10;99.90
1578;DHT22;57623;53.608;10.004;2024-02-21T00:40:49;9.20;99.90
1578;DHT22;57623;53.608;10.004;2024-02-21T00:43:17;9.10;99.90
1578;DHT22;57623;53.608;10.004;2024-02-21T00:45:45;9.10;99.90
1578;DHT22;57623;53.608;10.004;2024-02-21T00:48:15;9.10;99.90
1578;DHT22;57623;53.608;10.004;2024-02-21T00:50:43;9.10;99.90
1578;DHT22;57623;53.608;10.004;2024-02-21T00:53:10;9.10;99.90
1578;DHT22;57623;53.608;10.004;2024-02-21T00:55:38;9.10;99.90
1578;DHT22;57623;53.608;10.004;2024-02-21T00:58:07;9.10;99.90
1578;DHT22;57623;53.608;10.004;2024-02-21T01:00:35;9.10;99.90
1578;DHT22;57623;53.608;10.004;2024-02-21T01:03:04;9.10;99.90
1578;DHT22;57623;53.608;10.004;2024-02-21T01:05:33;9.10;99.90
1578;DHT22;57623;53.608;10.004;2024-02-21T01:08:01;9.10;99.90
1578;DHT22;57623;53.608;10.004;2024-02-21T01:10:29;9.20;99.90
1578;DHT22;57623;53.608;10.004;2024-02-21T01:12:57;9.20;99.90
1578;DHT22;57623;53.608;10.004;2024-02-21T01:15:25;9.20;99.90
1578;DHT22;57623;53.608;10.004;2024-02-21T01:17:53;9.20;99.90
1578;DHT22;57623;53.608;10.004;2024-02-21T01:20:22;9.20;99.90
1578;DHT22;57623;53.608;10.004;2024-02-21T01:22:51;9.20;99.90
1578;DHT22;57623;53.608;10.004;2024-02-21T01:25:19;9.20;99.90
1578;DHT22;57623;53.608;10.004;2024-02-21T01:27:47;9.20;99.90
1578;DHT22;57623;53.608;10.004;2024-02-21T01:30:15;9.20;99.90
1578;DHT22;57623;53.608;10.004;2024-02-21T01:32:43;9.20;99.90
1578;DHT22;57623;53.608;10.004;2024-02-21T01:35:12;9.20;99.90
1578;DHT22;57623;53.608;10.004;2024-02-21T01:37:40;9.20;99.90
1578;DHT22;57623;53.608;10.004;2024-02-21T01:40:11;9.20;99.90
1578;DHT22;57623;53.608;10.004;2024-02-21T01:42:39;9.20;99.90
1578;DHT22;57623;53.608;10.004;2024-02-21T01:45:08;9.20;99.90
1578;DHT22;57623;53.608;10.004;2024-02-21T01:47:37;9.20;99.90
1578;DHT22;57623;53.608;10.004;2024-02-21T01:50:06;9.20;99.90
1578;DHT22;57623;53.608;10.004;2024-02-21T01:52:35;9.10;99.90
1578;DHT22;57623;53.608;10.004;2024-02-21T01:55:03;9.10;99.90
1578;DHT22;57623;53.608;10.004;2024-02-21T01:57:32;9.10;99.90
1578;DHT22;57623;53.608;10.004;2024-02-21T02:00:01;9.10;99.90
1578;DHT22;57623;53.608;10.004;2024-02-21T02:02:29;9.10;99.90
1578;DHT22;57623;53.608;10.004;2024-02-21T02:04:57;9.10;99.90
1578;DHT22;57623;53.608;10.004;2024-02-21T02:07:26;9.00;99.90
1578;DHT22;57623;53.608;10.004;2024-02-21T02:09:54;9.00;99.90
1578;DHT22;57623;53.608;10.004;2024-02-21T02:12:22;9.00;99.90
1578;DHT22;57623;53.608;10.004;2024-02-21T02:14:59;9.00;99.90
1578;DHT22;57623;53.608;10.004;2024-02-21T02:17:27;9.00;99.90
1578;DHT22;57623;53.608;10.004;2024-02-21T02:19:55;8.90;99.90
1578;DHT22;57623;53.608;10.004;2024-02-21T02:22:28;8.90;99.90
1578;DHT22;57623;53.608;10.004;2024-02-21T02:24:58;8.90;99.90
1578;DHT22;57623;53.608;10.004;2024-02-21T02:27:26;8.90;99.90
1578;DHT22;57623;53.608;10.004;2024-02-21T02:29:54;8.90;99.90
1578;DHT22;57623;53.608;10.004;2024-02-21T02:32:22;8.80;99.90
1578;DHT22;57623;53.608;10.004;2024-02-21T02:34:50;8.80;99.90
1578;DHT22;57623;53.608;10.004;2024-02-21T02:37:18;8.80;99.90
1578;DHT22;57623;53.608;10.004;2024-02-21T02:39:46;8.70;99.90
1578;DHT22;57623;53.608;10.004;2024-02-21T02:42:17;8.70;99.90
1578;DHT22;57623;53.608;10.004;2024-02-21T02:44:45;8.80;99.90
1578;DHT22;57623;53.608;10.004;2024-02-21T02:47:13;8.80;99.90
1578;DHT22;57623;53.608;10.004;2024-02-21T02:49:41;8.90;99.90
1578;DHT22;57623;53.608;10.004;2024-02-21T02:52:10;8.90;99.90
1578;DHT22;57623;53.608;10.004;2024-02-21T02:54:38;8.90;99.90
1578;DHT22;57623;53.608;10.004;2024-02-21T02:57:07;8.90;99.90
1578;DHT22;57623;53.608;10.004;2024-02-21T02:59:36;8.90;99.90
1578;DHT22;57623;53.608;10.004;2024-02-21T03:02:04;8.90;99.90
1578;DHT22;57623;53.608;10.004;2024-02-21T03:04:32;8.90;99.90
1578;DHT22;57623;53.608;10.004;2024-02-21T03:07:00;8.90;99.90
1578;DHT22;57623;53.608;10.004;2024-02-21T03:09:28;8.90;99.90
1578;DHT22;57623;53.608;10.004;2024-02-21T03:11:56;9.00;99.90
1578;DHT22;57623;53.608;10.004;2024-02-21T03:14:29;9.00;99.90
1578;DHT22;57623;53.608;10.004;2024-02-21T03:16:59;9.00;99.90
1578;DHT22;57623;53.608;10.004;2024-02-21T03:19:27;9.00;99.90
1578;DHT22;57623;53.608;10.004;2024-02-21T03:21:56;9.00;99.90
1578;DHT22;57623;53.608;10.004;2024-02-21T03:24:24;9.10;99.90
1578;DHT22;57623;53.608;10.004;2024-02-21T03:26:52;9.10;99.90
1578;DHT22;57623;53.608;10.004;2024-02-21T03:29:20;9.10;99.90
1578;DHT22;57623;53.608;10.004;2024-02-21T03:31:47;9.10;99.90
1578;DHT22;57623;53.608;10.004;2024-02-21T03:34:17;9.00;99.90
1578;DHT22;57623;53.608;10.004;2024-02-21T03:36:45;9.10;99.90
1578;DHT22;57623;53.608;10.004;2024-02-21T03:39:13;9.10;99.90
1578;DHT22;57623;53.608;10.004;2024-02-21T03:41:41;9.10;99.90
1578;DHT22;57623;53.608;10.004;2024-02-21T03:44:10;9.10;99.90
1578;DHT22;57623;53.608;10.004;2024-02-21T03:46:38;9.20;99.90
1578;DHT22;57623;53.608;10.004;2024-02-21T03:49:06;9.20;99.90
1578;DHT22;57623;53.608;10.004;2024-02-21T03:51:35;9.20;99.90
1578;DHT22;57623;53.608;10.004;2024-02-21T03:54:03;9.20;99.90
1578;DHT22;57623;53.608;10.004;2024-02-21T03:56:31;9.20;99.90
1578;DHT22;57623;53.608;10.004;2024-02-21T03:58:59;9.20;99.90
1578;DHT22;57623;53.608;10.004;2024-02-21T04:01:28;9.20;99.90
1578;DHT22;57623;53.608;10.004;2024-02-21T04:03:56;9.20;99.90
1578;DHT22;57623;53.608;10.004;2024-02-21T04:06:24;9.20;99.90
1578;DHT22;57623;53.608;10.004;2024-02-21T04:08:54;9.20;99.90
1578;DHT22;57623;53.608;10.004;2024-02-21T04:11:22;9.20;99.90
1578;DHT22;57623;53.608;10.004;2024-02-21T04:13:50;9.20;99.90
1578;DHT22;57623;53.608;10.004;2024-02-21T04:16:18;9.20;99.90
1578;DHT22;57623;53.608;10.004;2024-02-21T04:18:46;9.20;99.90
1578;DHT22;57623;53.608;10.004;2024-02-21T04:21:14;9.20;99.90
1578;DHT22;57623;53.608;10.004;2024-02-21T04:23:43;9.10;99.90
1578;DHT22;57623;53.608;10.004;2024-02-21T04:26:12;9.10;99.90
1578;DHT22;57623;53.608;10.004;2024-02-21T04:28:40;9.10;99.90
1578;DHT22;57623;53.608;10.004;2024-02-21T04:31:08;9.10;99.90
1578;DHT22;57623;53.608;10.004;2024-02-21T04:33:36;9.10;99.90
1578;DHT22;57623;53.608;10.004;2024-02-21T04:36:05;9.10;99.90
1578;DHT22;57623;53.608;10.004;2024-02-21T04:38:33;9.10;99.90
1578;DHT22;57623;53.608;10.004;2024-02-21T04:41:01;9.10;99.90
1578;DHT22;57623;53.608;10.004;2024-02-21T04:43:30;9.10;99.90
1578;DHT22;57623;53.608;10.004;2024-02-21T04:45:58;9.00;99.90
1578;DHT22;57623;53.608;10.004;2024-02-21T04:48:27;9.00;99.90
1578;DHT22;57623;53.608;10.004;2024-02-21T04:50:55;9.00;99.90
1578;DHT22;57623;53.608;10.004;2024-02-21T04:53:23;9.00;99.90
1578;DHT22;57623;53.608;10.004;2024-02-21T04:55:50;9.10;99.90
1578;DHT22;57623;53.608;10.004;2024-02-21T04:58:18;9.10;99.90
1578;DHT22;57623;53.608;10.004;2024-02-21T05:00:48;9.10;99.90
1578;DHT22;57623;53.608;10.004;2024-02-21T05:03:16;9.00;99.90
1578;DHT22;57623;53.608;10.004;2024-02-21T05:05:44;9.00;99.90
1578;DHT22;57623;53.608;10.004;2024-02-21T05:08:12;9.00;99.90
1578;DHT22;57623;53.608;10.004;2024-02-21T05:10:40;9.00;99.90
1578;DHT22;57623;53.608;10.004;2024-02-21T05:13:09;9.00;99.90
1578;DHT22;57623;53.608;10.004;2024-02-21T05:15:37;9.00;99.90
1578;DHT22;57623;53.608;10.004;2024-02-21T05:18:06;9.00;99.90
1578;DHT22;57623;53.608;10.004;2024-02-21T05:20:34;9.00;99.90
1578;DHT22;57623;53.608;10.004;2024-02-21T05:23:03;9.00;99.90
1578;DHT22;57623;53.608;10.004;2024-02-21T05:25:31;9.00;99.90
1578;DHT22;57623;53.608;10.004;2024-02-21T05:27:59;8.90;99.90
1578;DHT22;57623;53.608;10.004;2024-02-21T05:30:28;9.00;99.90
1578;DHT22;57623;53.608;10.004;2024-02-21T05:32:56;9.00;99.90
1578;DHT22;57623;53.608;10.004;2024-02-21T05:35:27;9.00;99.90
1578;DHT22;57623;53.608;10.004;2024-02-21T05:37:55;9.00;99.90
1578;DHT22;57623;53.608;10.004;2024-02-21T05:40:23;8.90;99.90
1578;DHT22;57623;53.608;10.004;2024-02-21T05:42:52;8.90;99.90
1578;DHT22;57623;53.608;10.004;2024-02-21T05:45:20;8.90;99.90
1578;DHT22;57623;53.608;10.004;2024-02-21T05:47:48;8.90;99.90
1578;DHT22;57623;53.608;10.004;2024-02-21T05:50:16;8.90;99.90
1578;DHT22;57623;53.608;10.004;2024-02-21T05:52:46;8.90;99.90
1578;DHT22;57623;53.608;10.004;2024-02-21T05:55:14;8.90;99.90
1578;DHT22;57623;53.608;10.004;2024-02-21T05:57:42;8.90;99.90
1578;DHT22;57623;53.608;10.004;2024-02-21T06:00:11;8.90;99.90
1578;DHT22;57623;53.608;10.004;2024-02-21T06:02:39;8.90;99.90
1578;DHT22;57623;53.608;10.004;2024-02-21T06:05:08;8.90;99.90
1578;DHT22;57623;53.608;10.004;2024-02-21T06:07:36;8.90;99.90
1578;DHT22;57623;53.608;10.004;2024-02-21T06:10:07;8.90;99.90
1578;DHT22;57623;53.608;10.004;2024-02-21T06:12:35;8.90;99.90
1578;DHT22;57623;53.608;10.004;2024-02-21T06:15:04;8.90;99.90
1578;DHT22;57623;53.608;10.004;2024-02-21T06:17:32;8.90;99.90
1578;DHT22;57623;53.608;10.004;2024-02-21T06:20:00;8.90;99.90
1578;DHT22;57623;53.608;10.004;2024-02-21T06:22:29;8.90;99.90
1578;DHT22;57623;53.608;10.004;2024-02-21T06:24:58;8.90;99.90
1578;DHT22;57623;53.608;10.004;2024-02-21T06:27:27;8.90;99.90
1578;DHT22;57623;53.608;10.004;2024-02-21T06:29:55;8.90;99.90
1578;DHT22;57623;53.608;10.004;2024-02-21T06:32:23;8.90;99.90
1578;DHT22;57623;53.608;10.004;2024-02-21T06:34:51;8.90;99.90
1578;DHT22;57623;53.608;10.004;2024-02-21T06:37:19;8.90;99.90
1578;DHT22;57623;53.608;10.004;2024-02-21T06:39:47;8.90;99.90
1578;DHT22;57623;53.608;10.004;2024-02-21T06:42:15;8.90;99.90
1578;DHT22;57623;53.608;10.004;2024-02-21T06:44:45;8.90;99.90
1578;DHT22;57623;53.608;10.004;2024-02-21T06:47:13;8.90;99.90
1578;DHT22;57623;53.608;10.004;2024-02-21T06:49:41;8.90;99.90
1578;DHT22;57623;53.608;10.004;2024-02-21T06:52:09;8.90;99.90
1578;DHT22;57623;53.608;10.004;2024-02-21T06:54:37;8.90;99.90
1578;DHT22;57623;53.608;10.004;2024-02-21T06:57:06;8.90;99.90
1578;DHT22;57623;53.608;10.004;2024-02-21T06:59:34;8.90;99.90
1578;DHT22;57623;53.608;10.004;2024-02-21T07:02:03;8.90;99.90
1578;DHT22;57623;53.608;10.004;2024-02-21T07:04:32;9.00;99.90
1578;DHT22;57623;53.608;10.004;2024-02-21T07:07:00;9.00;99.90
1578;DHT22;57623;53.608;10.004;2024-02-21T07:09:29;9.00;99.90
1578;DHT22;57623;53.608;10.004;2024-02-21T07:11:59;9.00;99.90
1578;DHT22;57623;53.608;10.004;2024-02-21T07:14:28;9.00;99.90
1578;DHT22;57623;53.608;10.004;2024-02-21T07:16:56;9.00;99.90
1578;DHT22;57623;53.608;10.004;2024-02-21T07:19:26;9.00;99.90
1578;DHT22;57623;53.608;10.004;2024-02-21T07:21:54;9.00;99.90
1578;DHT22;57623;53.608;10.004;2024-02-21T07:24:23;9.00;99.90
1578;DHT22;57623;53.608;10.004;2024-02-21T07:26:51;9.00;99.90
1578;DHT22;57623;53.608;10.004;2024-02-21T07:29:19;9.00;99.90
1578;DHT22;57623;53.608;10.004;2024-02-21T07:31:48;9.00;99.90
1578;DHT22;57623;53.608;10.004;2024-02-21T07:34:18;9.00;99.90
1578;DHT22;57623;53.608;10.004;2024-02-21T07:36:48;9.00;99.90
1578;DHT22;57623;53.608;10.004;2024-02-21T07:39:16;9.10;99.90
1578;DHT22;57623;53.608;10.004;2024-02-21T07:41:44;9.10;99.90
1578;DHT22;57623;53.608;10.004;2024-02-21T07:44:13;9.00;99.90
1578;DHT22;57623;53.608;10.004;2024-02-21T07:46:41;9.10;99.90
1578;DHT22;57623;53.608;10.004;2024-02-21T07:49:09;9.10;99.90
1578;DHT22;57623;53.608;10.004;2024-02-21T07:51:37;9.10;99.90
1578;DHT22;57623;53.608;10.004;2024-02-21T07:54:06;9.10;99.90
1578;DHT22;57623;53.608;10.004;2024-02-21T07:56:37;9.10;99.90
1578;DHT22;57623;53.608;10.004;2024-02-21T07:59:05;9.10;99.90
1578;DHT22;57623;53.608;10.004;2024-02-21T08:01:33;9.10;99.90
1578;DHT22;57623;53.608;10.004;2024-02-21T08:04:01;9.10;99.90
1578;DHT22;57623;53.608;10.004;2024-02-21T08:06:31;9.10;99.90
1578;DHT22;57623;53.608;10.004;2024-02-21T08:08:59;9.10;99.90
1578;DHT22;57623;53.608;10.004;2024-02-21T08:11:30;9.10;99.90
1578;DHT22;57623;53.608;10.004;2024-02-21T08:13:59;9.20;99.90
1578;DHT22;57623;53.608;10.004;2024-02-21T08:16:27;9.10;99.90
1578;DHT22;57623;53.608;10.004;2024-02-21T08:18:55;9.10;99.90
1578;DHT22;57623;53.608;10.004;2024-02-21T08:21:24;9.10;99.90
1578;DHT22;57623;53.608;10.004;2024-02-21T08:23:52;9.10;99.90
1578;DHT22;57623;53.608;10.004;2024-02-21T08:26:21;9.10;99.90
1578;DHT22;57623;53.608;10.004;2024-02-21T08:28:50;9.10;99.90
1578;DHT22;57623;53.608;10.004;2024-02-21T08:31:19;9.20;99.90
1578;DHT22;57623;53.608;10.004;2024-02-21T08:33:47;9.20;99.90
1578;DHT22;57623;53.608;10.004;2024-02-21T08:36:17;9.20;99.90
1578;DHT22;57623;53.608;10.004;2024-02-21T08:38:47;9.20;99.90
1578;DHT22;57623;53.608;10.004;2024-02-21T08:41:15;9.20;99.90
1578;DHT22;57623;53.608;10.004;2024-02-21T08:43:43;9.20;99.90
1578;DHT22;57623;53.608;10.004;2024-02-21T08:46:13;9.20;99.90
1578;DHT22;57623;53.608;10.004;2024-02-21T08:48:41;9.20;99.90
1578;DHT22;57623;53.608;10.004;2024-02-21T08:51:09;9.20;99.90
1578;DHT22;57623;53.608;10.004;2024-02-21T08:53:37;9.30;99.90
1578;DHT22;57623;53.608;10.004;2024-02-21T08:56:06;9.20;99.90
1578;DHT22;57623;53.608;10.004;2024-02-21T08:58:35;9.20;99.90
1578;DHT22;57623;53.608;10.004;2024-02-21T09:01:04;9.30;99.90
1578;DHT22;57623;53.608;10.004;2024-02-21T09:03:34;9.20;99.90
1578;DHT22;57623;53.608;10.004;2024-02-21T09:06:03;9.30;99.90
1578;DHT22;57623;53.608;10.004;2024-02-21T09:08:32;9.20;99.90
1578;DHT22;57623;53.608;10.004;2024-02-21T09:11:00;9.20;99.90
1578;DHT22;57623;53.608;10.004;2024-02-21T09:13:29;9.30;99.90
1578;DHT22;57623;53.608;10.004;2024-02-21T09:15:57;9.30;99.90
1578;DHT22;57623;53.608;10.004;2024-02-21T09:18:29;9.30;99.90
1578;DHT22;57623;53.608;10.004;2024-02-21T09:20:59;9.30;99.90
1578;DHT22;57623;53.608;10.004;2024-02-21T09:23:27;9.30;99.90
1578;DHT22;57623;53.608;10.004;2024-02-21T09:25:55;9.40;99.90
1578;DHT22;57623;53.608;10.004;2024-02-21T09:28:23;9.40;99.90
1578;DHT22;57623;53.608;10.004;2024-02-21T09:30:51;9.40;99.90
1578;DHT22;57623;53.608;10.004;2024-02-21T09:33:19;9.30;99.90
1578;DHT22;57623;53.608;10.004;2024-02-21T09:35:59;9.30;99.90
1578;DHT22;57623;53.608;10.004;2024-02-21T09:38:27;9.30;99.90
1578;DHT22;57623;53.608;10.004;2024-02-21T09:40:59;9.30;99.90
1578;DHT22;57623;53.608;10.004;2024-02-21T09:43:29;9.30;99.90
1578;DHT22;57623;53.608;10.004;2024-02-21T09:45:58;9.30;99.90
1578;DHT22;57623;53.608;10.004;2024-02-21T09:48:36;9.30;99.90
1578;DHT22;57623;53.608;10.004;2024-02-21T09:51:10;9.30;99.90
1578;DHT22;57623;53.608;10.004;2024-02-21T09:53:40;9.30;99.90
1578;DHT22;57623;53.608;10.004;2024-02-21T09:56:24;9.30;99.90
1578;DHT22;57623;53.608;10.004;2024-02-21T09:58:52;9.30;99.90
1578;DHT22;57623;53.608;10.004;2024-02-21T10:01:20;9.30;99.90
1578;DHT22;57623;53.608;10.004;2024-02-21T10:04:00;9.30;99.90
1578;DHT22;57623;53.608;10.004;2024-02-21T10:06:31;9.30;99.90
1578;DHT22;57623;53.608;10.004;2024-02-21T10:09:00;9.30;99.90
1578;DHT22;57623;53.608;10.004;2024-02-21T10:11:28;9.30;99.90
1578;DHT22;57623;53.608;10.004;2024-02-21T10:14:04;9.30;99.90
1578;DHT22;57623;53.608;10.004;2024-02-21T10:16:33;9.30;99.90
1578;DHT22;57623;53.608;10.004;2024-02-21T10:19:01;9.30;99.90
1578;DHT22;57623;53.608;10.004;2024-02-21T10:21:32;9.20;99.90
1578;DHT22;57623;53.608;10.004;2024-02-21T10:24:00;9.30;99.90
1578;DHT22;57623;53.608;10.004;2024-02-21T10:26:28;9.20;99.90
1578;DHT22;57623;53.608;10.004;2024-02-21T10:28:56;9.30;99.90
1578;DHT22;57623;53.608;10.004;2024-02-21T10:31:25;9.30;99.90
1578;DHT22;57623;53.608;10.004;2024-02-21T10:33:55;9.30;99.90
1578;DHT22;57623;53.608;10.004;2024-02-21T10:36:24;9.30;99.90
1578;DHT22;57623;53.608;10.004;2024-02-21T10:38:54;9.20;99.90
1578;DHT22;57623;53.608;10.004;2024-02-21T10:41:23;9.30;99.90
1578;DHT22;57623;53.608;10.004;2024-02-21T10:43:52;9.30;99.90
1578;DHT22;57623;53.608;10.004;2024-02-21T10:46:23;9.30;99.90
1578;DHT22;57623;53.608;10.004;2024-02-21T10:49:01;9.30;99.90
1578;DHT22;57623;53.608;10.004;2024-02-21T10:51:33;9.30;99.90
1578;DHT22;57623;53.608;10.004;2024-02-21T10:54:13;9.30;99.90
1578;DHT22;57623;53.608;10.004;2024-02-21T10:56:45;9.30;99.90
1578;DHT22;57623;53.608;10.004;2024-02-21T10:59:13;9.30;99.90
1578;DHT22;57623;53.608;10.004;2024-02-21T11:01:42;9.40;99.90
1578;DHT22;57623;53.608;10.004;2024-02-21T11:04:11;9.30;99.90
1578;DHT22;57623;53.608;10.004;2024-02-21T11:06:40;9.30;99.90
1578;DHT22;57623;53.608;10.004;2024-02-21T11:09:10;9.40;99.90
1578;DHT22;57623;53.608;10.004;2024-02-21T11:11:40;9.40;99.90
1578;DHT22;57623;53.608;10.004;2024-02-21T11:14:09;9.40;99.90
1578;DHT22;57623;53.608;10.004;2024-02-21T11:16:39;9.40;99.90
1578;DHT22;57623;53.608;10.004;2024-02-21T11:19:08;9.40;99.90
1578;DHT22;57623;53.608;10.004;2024-02-21T11:21:38;9.40;99.90
1578;DHT22;57623;53.608;10.004;2024-02-21T11:24:09;9.40;99.90
1578;DHT22;57623;53.608;10.004;2024-02-21T11:26:38;9.40;99.90
1578;DHT22;57623;53.608;10.004;2024-02-21T11:29:06;9.40;99.90
1578;DHT22;57623;53.608;10.004;2024-02-21T11:31:39;9.40;99.90
1578;DHT22;57623;53.608;10.004;2024-02-21T11:34:09;9.40;99.90
1578;DHT22;57623;53.608;10.004;2024-02-21T11:36:46;9.50;99.90
1578;DHT22;57623;53.608;10.004;2024-02-21T11:39:24;9.40;99.90
1578;DHT22;57623;53.608;10.004;2024-02-21T11:42:02;9.40;99.90
1578;DHT22;57623;53.608;10.004;2024-02-21T11:44:31;9.40;99.90
1578;DHT22;57623;53.608;10.004;2024-02-21T11:46:59;9.40;99.90
1578;DHT22;57623;53.608;10.004;2024-02-21T11:49:29;9.40;99.90
1578;DHT22;57623;53.608;10.004;2024-02-21T11:51:59;9.40;99.90
1578;DHT22;57623;53.608;10.004;2024-02-21T11:54:29;9.30;99.90
1578;DHT22;57623;53.608;10.004;2024-02-21T11:56:57;9.40;99.90
1578;DHT22;57623;53.608;10.004;2024-02-21T11:59:25;9.40;99.90
1578;DHT22;57623;53.608;10.004;2024-02-21T12:01:53;9.40;99.90
1578;DHT22;57623;53.608;10.004;2024-02-21T12:04:21;9.40;99.90
1578;DHT22;57623;53.608;10.004;2024-02-21T12:06:52;9.40;99.90
1578;DHT22;57623;53.608;10.004;2024-02-21T12:09:22;9.40;99.90
1578;DHT22;57623;53.608;10.004;2024-02-21T12:11:59;9.40;99.90
1578;DHT22;57623;53.608;10.004;2024-02-21T12:14:28;9.40;99.90
1578;DHT22;57623;53.608;10.004;2024-02-21T12:16:57;9.40;99.90
1578;DHT22;57623;53.608;10.004;2024-02-21T12:19:25;9.30;99.90
1578;DHT22;57623;53.608;10.004;2024-02-21T12:21:54;9.40;99.90
1578;DHT22;57623;53.608;10.004;2024-02-21T12:24:25;9.30;99.90
1578;DHT22;57623;53.608;10.004;2024-02-21T12:26:54;9.30;99.90
1578;DHT22;57623;53.608;10.004;2024-02-21T12:29:24;9.30;99.90
1578;DHT22;57623;53.608;10.004;2024-02-21T12:31:52;9.40;99.90
1578;DHT22;57623;53.608;10.004;2024-02-21T12:34:22;9.30;99.90
1578;DHT22;57623;53.608;10.004;2024-02-21T12:37:04;9.30;99.90
1578;DHT22;57623;53.608;10.004;2024-02-21T12:39:32;9.30;99.90
1578;DHT22;57623;53.608;10.004;2024-02-21T12:42:00;9.30;99.90
1578;DHT22;57623;53.608;10.004;2024-02-21T12:44:30;9.30;99.90
1578;DHT22;57623;53.608;10.004;2024-02-21T12:46:59;9.30;99.90
1578;DHT22;57623;53.608;10.004;2024-02-21T12:49:27;9.30;99.90
1578;DHT22;57623;53.608;10.004;2024-02-21T12:51:56;9.30;99.90
1578;DHT22;57623;53.608;10.004;2024-02-21T12:54:24;9.30;99.90
1578;DHT22;57623;53.608;10.004;2024-02-21T12:56:52;9.30;99.90
1578;DHT22;57623;53.608;10.004;2024-02-21T12:59:20;9.20;99.90
1578;DHT22;57623;53.608;10.004;2024-02-21T13:01:50;9.20;99.90
1578;DHT22;57623;53.608;10.004;2024-02-21T13:04:19;9.20;99.90
1578;DHT22;57623;53.608;10.004;2024-02-21T13:06:48;9.20;99.90
1578;DHT22;57623;53.608;10.004;2024-02-21T13:09:16;9.20;99.90
1578;DHT22;57623;53.608;10.004;2024-02-21T13:11:44;9.20;99.90
1578;DHT22;57623;53.608;10.004;2024-02-21T13:14:13;9.20;99.90
1578;DHT22;57623;53.608;10.004;2024-02-21T13:16:41;9.20;99.90
1578;DHT22;57623;53.608;10.004;2024-02-21T13:19:10;9.20;99.90
1578;DHT22;57623;53.608;10.004;2024-02-21T13:21:40;9.20;99.90
1578;DHT22;57623;53.608;10.004;2024-02-21T13:24:09;9.30;99.90
1578;DHT22;57623;53.608;10.004;2024-02-21T13:26:37;9.30;99.90
1578;DHT22;57623;53.608;10.004;2024-02-21T13:29:05;9.30;99.90
1578;DHT22;57623;53.608;10.004;2024-02-21T13:31:33;9.30;99.90
1578;DHT22;57623;53.608;10.004;2024-02-21T13:34:01;9.40;99.90
1578;DHT22;57623;53.608;10.004;2024-02-21T13:36:31;9.40;99.90
1578;DHT22;57623;53.608;10.004;2024-02-21T13:38:59;9.40;99.90
1578;DHT22;57623;53.608;10.004;2024-02-21T13:41:27;9.40;99.90
1578;DHT22;57623;53.608;10.004;2024-02-21T13:43:56;9.40;99.90
1578;DHT22;57623;53.608;10.004;2024-02-21T13:46:24;9.40;99.90
1578;DHT22;57623;53.608;10.004;2024-02-21T13:48:54;9.40;99.90
1578;DHT22;57623;53.608;10.004;2024-02-21T13:51:33;9.50;99.90
1578;DHT22;57623;53.608;10.004;2024-02-21T13:54:03;9.50;99.90
1578;DHT22;57623;53.608;10.004;2024-02-21T13:56:31;9.60;99.90
1578;DHT22;57623;53.608;10.004;2024-02-21T13:59:00;9.60;99.90
1578;DHT22;57623;53.608;10.004;2024-02-21T14:01:28;9.60;99.90
1578;DHT22;57623;53.608;10.004;2024-02-21T14:03:56;9.70;99.90
1578;DHT22;57623;53.608;10.004;2024-02-21T14:06:24;9.70;99.90
1578;DHT22;57623;53.608;10.004;2024-02-21T14:08:53;9.70;99.90
1578;DHT22;57623;53.608;10.004;2024-02-21T14:11:21;9.80;99.90
1578;DHT22;57623;53.608;10.004;2024-02-21T14:13:50;9.80;99.90
1578;DHT22;57623;53.608;10.004;2024-02-21T14:16:18;9.90;99.90
1578;DHT22;57623;53.608;10.004;2024-02-21T14:18:46;9.90;99.90
1578;DHT22;57623;53.608;10.004;2024-02-21T14:21:15;9.90;99.90
1578;DHT22;57623;53.608;10.004;2024-02-21T14:23:43;10.00;99.90
1578;DHT22;57623;53.608;10.004;2024-02-21T14:26:12;10.00;99.90
1578;DHT22;57623;53.608;10.004;2024-02-21T14:28:41;10.00;99.90
1578;DHT22;57623;53.608;10.004;2024-02-21T14:31:12;10.00;99.90
1578;DHT22;57623;53.608;10.004;2024-02-21T14:33:40;10.10;99.90
1578;DHT22;57623;53.608;10.004;2024-02-21T14:36:08;10.10;99.90
1578;DHT22;57623;53.608;10.004;2024-02-21T14:38:38;10.10;99.90
1578;DHT22;57623;53.608;10.004;2024-02-21T14:41:06;10.10;99.90
1578;DHT22;57623;53.608;10.004;2024-02-21T14:43:36;10.10;99.90
1578;DHT22;57623;53.608;10.004;2024-02-21T14:46:04;10.10;99.90
1578;DHT22;57623;53.608;10.004;2024-02-21T14:48:32;10.10;99.90
1578;DHT22;57623;53.608;10.004;2024-02-21T14:51:00;10.10;99.90
1578;DHT22;57623;53.608;10.004;2024-02-21T14:53:29;10.10;99.90
1578;DHT22;57623;53.608;10.004;2024-02-21T14:55:57;10.10;99.90
1578;DHT22;57623;53.608;10.004;2024-02-21T14:58:25;10.10;99.90
1578;DHT22;57623;53.608;10.004;2024-02-21T15:00:57;10.00;99.90
1578;DHT22;57623;53.608;10.004;2024-02-21T15:03:25;10.00;99.90
1578;DHT22;57623;53.608;10.004;2024-02-21T15:05:54;10.00;99.90
1578;DHT22;57623;53.608;10.004;2024-02-21T15:08:22;10.00;99.90
1578;DHT22;57623;53.608;10.004;2024-02-21T15:10:50;10.00;99.90
1578;DHT22;57623;53.608;10.004;2024-02-21T15:13:18;10.10;99.90
1578;DHT22;57623;53.608;10.004;2024-02-21T15:15:47;10.10;99.90
1578;DHT22;57623;53.608;10.004;2024-02-21T15:18:17;10.10;99.90
1578;DHT22;57623;53.608;10.004;2024-02-21T15:20:45;10.10;99.90
1578;DHT22;57623;53.608;10.004;2024-02-21T15:23:13;10.10;99.90
1578;DHT22;57623;53.608;10.004;2024-02-21T15:25:42;10.10;99.90
1578;DHT22;57623;53.608;10.004;2024-02-21T15:28:10;10.10;99.90
1578;DHT22;57623;53.608;10.004;2024-02-21T15:30:39;10.10;99.90
1578;DHT22;57623;53.608;10.004;2024-02-21T15:33:07;10.10;99.90
1578;DHT22;57623;53.608;10.004;2024-02-21T15:35:37;10.10;99.90
1578;DHT22;57623;53.608;10.004;2024-02-21T15:38:05;10.10;99.90
1578;DHT22;57623;53.608;10.004;2024-02-21T15:40:33;10.10;99.90
1578;DHT22;57623;53.608;10.004;2024-02-21T15:43:03;10.10;99.90
1578;DHT22;57623;53.608;10.004;2024-02-21T15:45:31;10.00;99.90
1578;DHT22;57623;53.608;10.004;2024-02-21T15:47:59;10.00;99.90
1578;DHT22;57623;53.608;10.004;2024-02-21T15:50:27;10.00;99.90
1578;DHT22;57623;53.608;10.004;2024-02-21T15:52:57;10.00;99.90
1578;DHT22;57623;53.608;10.004;2024-02-21T15:55:26;9.90;99.90